sensor_id;sensor_type;location;lat;lon;timestamp;P1;durP1;ratioP1;P2;durP2;ratioP2
54557;SDS011;40452;50.080;20.040;2022-09-09T00:01:33;4.95;;;3.42;;
54557;SDS011;40452;50.080;20.040;2022-09-09T00:06:42;5.63;;;3.42;;
54557;SDS011;40452;50.080;20.040;2022-09-09T00:09:25;4.30;;;3.45;;
54557;SDS011;40452;50.080;20.040;2022-09-09T00:11:58;4.32;;;3.40;;
54557;SDS011;40452;50.080;20.040;2022-09-09T04:03:28;5.32;;;3.72;;
54557;SDS011;40452;50.080;20.040;2022-09-09T04:05:54;5.72;;;3.17;;
54557;SDS011;40452;50.080;20.040;2022-09-09T04:08:22;3.33;;;3.03;;
54557;SDS011;40452;50.080;20.040;2022-09-09T04:10:50;4.95;;;3.63;;
54557;SDS011;40452;50.080;20.040;2022-09-09T04:13:16;5.22;;;3.47;;
54557;SDS011;40452;50.080;20.040;2022-09-09T04:15:52;4.15;;;3.38;;
54557;SDS011;40452;50.080;20.040;2022-09-09T04:18:23;6.07;;;3.35;;
54557;SDS011;40452;50.080;20.040;2022-09-09T04:20:50;7.57;;;3.80;;
54557;SDS011;40452;50.080;20.040;2022-09-09T04:23:17;5.75;;;3.53;;
54557;SDS011;40452;50.080;20.040;2022-09-09T04:25:45;8.57;;;4.03;;
54557;SDS011;40452;50.080;20.040;2022-09-09T04:28:13;4.53;;;3.53;;
54557;SDS011;40452;50.080;20.040;2022-09-09T04:30:39;6.45;;;4.15;;
54557;SDS011;40452;50.080;20.040;2022-09-09T04:33:05;5.82;;;3.60;;
54557;SDS011;40452;50.080;20.040;2022-09-09T04:35:31;4.97;;;3.35;;
54557;SDS011;40452;50.080;20.040;2022-09-09T04:37:57;4.68;;;3.30;;
54557;SDS011;40452;50.080;20.040;2022-09-09T04:40:23;4.18;;;3.20;;
54557;SDS011;40452;50.080;20.040;2022-09-09T04:42:49;3.70;;;3.25;;
54557;SDS011;40452;50.080;20.040;2022-09-09T04:45:15;4.57;;;3.30;;
54557;SDS011;40452;50.080;20.040;2022-09-09T04:47:40;4.32;;;3.67;;
54557;SDS011;40452;50.080;20.040;2022-09-09T04:50:07;6.22;;;3.53;;
54557;SDS011;40452;50.080;20.040;2022-09-09T04:52:34;5.15;;;3.45;;
54557;SDS011;40452;50.080;20.040;2022-09-09T04:55:00;6.68;;;3.33;;
54557;SDS011;40452;50.080;20.040;2022-09-09T04:57:26;4.00;;;3.35;;
54557;SDS011;40452;50.080;20.040;2022-09-09T04:59:53;5.72;;;3.20;;
54557;SDS011;40452;50.080;20.040;2022-09-09T05:02:19;4.35;;;3.15;;
54557;SDS011;40452;50.080;20.040;2022-09-09T05:04:44;5.20;;;3.40;;
54557;SDS011;40452;50.080;20.040;2022-09-09T05:07:10;3.42;;;2.85;;
54557;SDS011;40452;50.080;20.040;2022-09-09T05:09:35;5.72;;;3.25;;
54557;SDS011;40452;50.080;20.040;2022-09-09T05:12:01;5.80;;;2.95;;
54557;SDS011;40452;50.080;20.040;2022-09-09T05:14:27;3.72;;;2.95;;
54557;SDS011;40452;50.080;20.040;2022-09-09T05:16:54;6.55;;;3.10;;
54557;SDS011;40452;50.080;20.040;2022-09-09T05:19:21;4.57;;;3.00;;
54557;SDS011;40452;50.080;20.040;2022-09-09T05:21:46;4.82;;;3.08;;
54557;SDS011;40452;50.080;20.040;2022-09-09T05:24:12;3.95;;;3.05;;
54557;SDS011;40452;50.080;20.040;2022-09-09T05:26:37;3.90;;;3.05;;
54557;SDS011;40452;50.080;20.040;2022-09-09T05:29:03;6.03;;;2.92;;
54557;SDS011;40452;50.080;20.040;2022-09-09T05:31:29;4.40;;;2.80;;
54557;SDS011;40452;50.080;20.040;2022-09-09T05:33:55;3.60;;;3.00;;
54557;SDS011;40452;50.080;20.040;2022-09-09T05:36:21;3.63;;;2.80;;
54557;SDS011;40452;50.080;20.040;2022-09-09T05:38:48;3.65;;;3.17;;
54557;SDS011;40452;50.080;20.040;2022-09-09T05:41:15;3.97;;;2.75;;
54557;SDS011;40452;50.080;20.040;2022-09-09T05:43:42;3.92;;;3.03;;
54557;SDS011;40452;50.080;20.040;2022-09-09T05:46:13;4.20;;;3.10;;
54557;SDS011;40452;50.080;20.040;2022-09-09T05:48:40;4.35;;;3.00;;
54557;SDS011;40452;50.080;20.040;2022-09-09T05:51:11;8.40;;;3.17;;
54557;SDS011;40452;50.080;20.040;2022-09-09T05:53:41;4.97;;;3.42;;
54557;SDS011;40452;50.080;20.040;2022-09-09T05:56:08;4.75;;;2.92;;
54557;SDS011;40452;50.080;20.040;2022-09-09T05:58:39;4.60;;;2.70;;
54557;SDS011;40452;50.080;20.040;2022-09-09T06:01:11;5.80;;;2.97;;
54557;SDS011;40452;50.080;20.040;2022-09-09T06:03:40;4.03;;;3.15;;
54557;SDS011;40452;50.080;20.040;2022-09-09T06:06:07;5.22;;;2.90;;
54557;SDS011;40452;50.080;20.040;2022-09-09T06:08:35;11.88;;;3.40;;
54557;SDS011;40452;50.080;20.040;2022-09-09T06:11:04;5.22;;;3.20;;
54557;SDS011;40452;50.080;20.040;2022-09-09T06:13:31;5.28;;;3.70;;
54557;SDS011;40452;50.080;20.040;2022-09-09T06:15:57;7.43;;;3.83;;
54557;SDS011;40452;50.080;20.040;2022-09-09T06:18:23;6.43;;;3.83;;
54557;SDS011;40452;50.080;20.040;2022-09-09T06:20:56;4.97;;;3.70;;
54557;SDS011;40452;50.080;20.040;2022-09-09T06:23:26;6.90;;;2.97;;
54557;SDS011;40452;50.080;20.040;2022-09-09T06:28:33;5.95;;;4.35;;
54557;SDS011;40452;50.080;20.040;2022-09-09T06:30:59;5.75;;;3.83;;
54557;SDS011;40452;50.080;20.040;2022-09-09T06:33:26;5.57;;;4.40;;
54557;SDS011;40452;50.080;20.040;2022-09-09T06:35:55;5.05;;;3.50;;
54557;SDS011;40452;50.080;20.040;2022-09-09T06:38:22;5.28;;;4.10;;
54557;SDS011;40452;50.080;20.040;2022-09-09T06:40:55;6.30;;;4.00;;
54557;SDS011;40452;50.080;20.040;2022-09-09T06:43:23;6.45;;;3.20;;
54557;SDS011;40452;50.080;20.040;2022-09-09T06:45:59;7.50;;;5.18;;
54557;SDS011;40452;50.080;20.040;2022-09-09T06:48:29;5.22;;;3.97;;
54557;SDS011;40452;50.080;20.040;2022-09-09T06:51:05;6.50;;;4.32;;
54557;SDS011;40452;50.080;20.040;2022-09-09T06:53:33;5.53;;;4.35;;
54557;SDS011;40452;50.080;20.040;2022-09-09T06:56:02;6.32;;;4.18;;
54557;SDS011;40452;50.080;20.040;2022-09-09T06:58:34;5.05;;;3.90;;
54557;SDS011;40452;50.080;20.040;2022-09-09T07:01:01;11.25;;;4.05;;
54557;SDS011;40452;50.080;20.040;2022-09-09T07:03:30;6.45;;;3.67;;
54557;SDS011;40452;50.080;20.040;2022-09-09T07:05:56;5.70;;;3.25;;
54557;SDS011;40452;50.080;20.040;2022-09-09T07:08:22;8.68;;;3.10;;
54557;SDS011;40452;50.080;20.040;2022-09-09T07:10:49;5.05;;;3.58;;
54557;SDS011;40452;50.080;20.040;2022-09-09T07:13:16;6.60;;;3.42;;
54557;SDS011;40452;50.080;20.040;2022-09-09T07:15:42;10.57;;;3.45;;
54557;SDS011;40452;50.080;20.040;2022-09-09T07:18:07;6.95;;;3.53;;
54557;SDS011;40452;50.080;20.040;2022-09-09T07:20:35;6.20;;;3.40;;
54557;SDS011;40452;50.080;20.040;2022-09-09T07:23:00;3.88;;;3.22;;
54557;SDS011;40452;50.080;20.040;2022-09-09T07:25:26;9.48;;;3.33;;
54557;SDS011;40452;50.080;20.040;2022-09-09T07:27:55;6.40;;;3.20;;
54557;SDS011;40452;50.080;20.040;2022-09-09T07:30:21;8.68;;;3.42;;
54557;SDS011;40452;50.080;20.040;2022-09-09T07:32:46;8.75;;;3.58;;
54557;SDS011;40452;50.080;20.040;2022-09-09T07:35:12;5.20;;;3.35;;
54557;SDS011;40452;50.080;20.040;2022-09-09T07:37:37;6.03;;;3.28;;
54557;SDS011;40452;50.080;20.040;2022-09-09T07:40:03;5.68;;;3.20;;
54557;SDS011;40452;50.080;20.040;2022-09-09T07:42:30;11.00;;;3.50;;
54557;SDS011;40452;50.080;20.040;2022-09-09T07:44:55;12.88;;;3.70;;
54557;SDS011;40452;50.080;20.040;2022-09-09T07:47:21;4.90;;;3.28;;
54557;SDS011;40452;50.080;20.040;2022-09-09T07:49:47;6.68;;;3.15;;
54557;SDS011;40452;50.080;20.040;2022-09-09T07:52:14;11.55;;;3.70;;
54557;SDS011;40452;50.080;20.040;2022-09-09T07:54:40;12.57;;;3.70;;
54557;SDS011;40452;50.080;20.040;2022-09-09T07:57:06;6.70;;;3.22;;
54557;SDS011;40452;50.080;20.040;2022-09-09T07:59:32;6.32;;;3.97;;
54557;SDS011;40452;50.080;20.040;2022-09-09T08:01:58;9.05;;;4.22;;
54557;SDS011;40452;50.080;20.040;2022-09-09T08:04:24;5.50;;;3.67;;
54557;SDS011;40452;50.080;20.040;2022-09-09T08:06:52;9.73;;;4.00;;
54557;SDS011;40452;50.080;20.040;2022-09-09T08:09:19;7.82;;;3.85;;
54557;SDS011;40452;50.080;20.040;2022-09-09T08:11:45;5.07;;;3.30;;
54557;SDS011;40452;50.080;20.040;2022-09-09T08:14:12;6.82;;;3.20;;
54557;SDS011;40452;50.080;20.040;2022-09-09T08:16:39;6.13;;;3.63;;
54557;SDS011;40452;50.080;20.040;2022-09-09T08:19:07;5.75;;;3.67;;
54557;SDS011;40452;50.080;20.040;2022-09-09T08:21:33;6.60;;;3.33;;
54557;SDS011;40452;50.080;20.040;2022-09-09T08:24:01;4.88;;;3.00;;
54557;SDS011;40452;50.080;20.040;2022-09-09T08:26:28;5.75;;;3.58;;
54557;SDS011;40452;50.080;20.040;2022-09-09T08:28:56;5.22;;;3.85;;
54557;SDS011;40452;50.080;20.040;2022-09-09T08:31:27;4.22;;;3.20;;
54557;SDS011;40452;50.080;20.040;2022-09-09T08:33:54;7.35;;;3.20;;
54557;SDS011;40452;50.080;20.040;2022-09-09T08:36:22;6.93;;;3.70;;
54557;SDS011;40452;50.080;20.040;2022-09-09T08:38:51;3.72;;;3.13;;
54557;SDS011;40452;50.080;20.040;2022-09-09T08:41:29;4.45;;;2.85;;
54557;SDS011;40452;50.080;20.040;2022-09-09T08:44:20;4.68;;;3.40;;
54557;SDS011;40452;50.080;20.040;2022-09-09T08:52:37;6.10;;;3.13;;
54557;SDS011;40452;50.080;20.040;2022-09-09T08:58:02;4.88;;;2.65;;
54557;SDS011;40452;50.080;20.040;2022-09-09T09:00:40;4.38;;;2.80;;
54557;SDS011;40452;50.080;20.040;2022-09-09T09:05:47;5.23;;;2.90;;
54557;SDS011;40452;50.080;20.040;2022-09-09T09:08:25;3.72;;;2.70;;
54557;SDS011;40452;50.080;20.040;2022-09-09T09:10:56;3.10;;;2.63;;
54557;SDS011;40452;50.080;20.040;2022-09-09T09:16:06;3.83;;;2.90;;
54557;SDS011;40452;50.080;20.040;2022-09-09T09:18:39;3.33;;;2.45;;
54557;SDS011;40452;50.080;20.040;2022-09-09T09:23:36;3.60;;;2.45;;
54557;SDS011;40452;50.080;20.040;2022-09-09T09:26:09;4.90;;;2.60;;
54557;SDS011;40452;50.080;20.040;2022-09-09T09:28:36;3.42;;;2.40;;
54557;SDS011;40452;50.080;20.040;2022-09-09T09:31:05;3.00;;;2.60;;
54557;SDS011;40452;50.080;20.040;2022-09-09T09:33:41;4.43;;;2.85;;
54557;SDS011;40452;50.080;20.040;2022-09-09T09:36:14;3.70;;;2.42;;
54557;SDS011;40452;50.080;20.040;2022-09-09T09:38:51;3.25;;;2.50;;
54557;SDS011;40452;50.080;20.040;2022-09-09T09:41:36;3.40;;;2.58;;
54557;SDS011;40452;50.080;20.040;2022-09-09T09:44:05;3.60;;;2.60;;
54557;SDS011;40452;50.080;20.040;2022-09-09T09:46:44;2.97;;;2.40;;
54557;SDS011;40452;50.080;20.040;2022-09-09T09:49:10;4.38;;;2.65;;
54557;SDS011;40452;50.080;20.040;2022-09-09T09:51:35;2.90;;;2.15;;
54557;SDS011;40452;50.080;20.040;2022-09-09T09:54:43;3.05;;;2.28;;
54557;SDS011;40452;50.080;20.040;2022-09-09T09:59:35;2.42;;;2.22;;
54557;SDS011;40452;50.080;20.040;2022-09-09T10:05:01;2.50;;;2.17;;
54557;SDS011;40452;50.080;20.040;2022-09-09T10:07:27;3.70;;;2.42;;
54557;SDS011;40452;50.080;20.040;2022-09-09T10:09:55;4.75;;;2.50;;
54557;SDS011;40452;50.080;20.040;2022-09-09T10:21:06;3.40;;;2.58;;
54557;SDS011;40452;50.080;20.040;2022-09-09T10:26:27;3.53;;;2.47;;
54557;SDS011;40452;50.080;20.040;2022-09-09T10:31:52;4.07;;;2.30;;
54557;SDS011;40452;50.080;20.040;2022-09-09T10:40:32;2.83;;;2.10;;
54557;SDS011;40452;50.080;20.040;2022-09-09T10:56:51;5.53;;;2.60;;
54557;SDS011;40452;50.080;20.040;2022-09-09T10:59:23;3.63;;;2.25;;
54557;SDS011;40452;50.080;20.040;2022-09-09T11:01:56;3.20;;;2.53;;
54557;SDS011;40452;50.080;20.040;2022-09-09T11:04:30;3.63;;;2.60;;
54557;SDS011;40452;50.080;20.040;2022-09-09T11:07:00;4.30;;;2.25;;
54557;SDS011;40452;50.080;20.040;2022-09-09T11:09:33;3.45;;;2.15;;
54557;SDS011;40452;50.080;20.040;2022-09-09T11:12:05;2.58;;;2.20;;
54557;SDS011;40452;50.080;20.040;2022-09-09T11:14:36;3.25;;;2.10;;
54557;SDS011;40452;50.080;20.040;2022-09-09T11:17:10;2.72;;;2.08;;
54557;SDS011;40452;50.080;20.040;2022-09-09T11:19:40;3.70;;;2.28;;
54557;SDS011;40452;50.080;20.040;2022-09-09T11:22:14;5.45;;;2.38;;
54557;SDS011;40452;50.080;20.040;2022-09-09T11:25:01;4.25;;;2.35;;
54557;SDS011;40452;50.080;20.040;2022-09-09T11:33:42;3.08;;;2.20;;
54557;SDS011;40452;50.080;20.040;2022-09-09T11:44:41;3.95;;;2.38;;
54557;SDS011;40452;50.080;20.040;2022-09-09T11:47:19;2.92;;;2.03;;
54557;SDS011;40452;50.080;20.040;2022-09-09T11:49:51;2.50;;;2.20;;
54557;SDS011;40452;50.080;20.040;2022-09-09T11:52:37;2.78;;;2.03;;
54557;SDS011;40452;50.080;20.040;2022-09-09T11:55:08;3.00;;;2.30;;
54557;SDS011;40452;50.080;20.040;2022-09-09T11:57:36;4.05;;;2.13;;
54557;SDS011;40452;50.080;20.040;2022-09-09T12:00:04;2.58;;;1.95;;
54557;SDS011;40452;50.080;20.040;2022-09-09T12:02:31;3.72;;;2.38;;
54557;SDS011;40452;50.080;20.040;2022-09-09T12:07:56;3.58;;;2.30;;
54557;SDS011;40452;50.080;20.040;2022-09-09T12:10:26;3.33;;;2.13;;
54557;SDS011;40452;50.080;20.040;2022-09-09T12:12:55;2.72;;;2.10;;
54557;SDS011;40452;50.080;20.040;2022-09-09T12:17:49;2.40;;;2.00;;
54557;SDS011;40452;50.080;20.040;2022-09-09T12:20:50;2.17;;;1.83;;
54557;SDS011;40452;50.080;20.040;2022-09-09T12:26:04;2.55;;;2.13;;
54557;SDS011;40452;50.080;20.040;2022-09-09T12:31:34;1.98;;;1.70;;
54557;SDS011;40452;50.080;20.040;2022-09-09T12:37:03;2.45;;;1.80;;
54557;SDS011;40452;50.080;20.040;2022-09-09T12:39:51;2.70;;;2.10;;
54557;SDS011;40452;50.080;20.040;2022-09-09T12:42:21;2.47;;;2.10;;
54557;SDS011;40452;50.080;20.040;2022-09-09T12:44:51;3.10;;;1.80;;
54557;SDS011;40452;50.080;20.040;2022-09-09T12:47:22;3.28;;;1.98;;
54557;SDS011;40452;50.080;20.040;2022-09-09T12:49:51;2.17;;;1.67;;
54557;SDS011;40452;50.080;20.040;2022-09-09T12:52:19;2.60;;;2.10;;
54557;SDS011;40452;50.080;20.040;2022-09-09T12:55:00;2.80;;;2.00;;
54557;SDS011;40452;50.080;20.040;2022-09-09T12:57:30;2.10;;;1.90;;
54557;SDS011;40452;50.080;20.040;2022-09-09T13:00:06;2.38;;;1.67;;
54557;SDS011;40452;50.080;20.040;2022-09-09T13:05:21;2.60;;;1.88;;
54557;SDS011;40452;50.080;20.040;2022-09-09T13:07:48;2.53;;;1.73;;
54557;SDS011;40452;50.080;20.040;2022-09-09T13:10:15;2.20;;;1.80;;
54557;SDS011;40452;50.080;20.040;2022-09-09T13:12:51;2.05;;;1.60;;
54557;SDS011;40452;50.080;20.040;2022-09-09T13:15:21;2.20;;;1.90;;
54557;SDS011;40452;50.080;20.040;2022-09-09T13:17:50;2.55;;;1.80;;
54557;SDS011;40452;50.080;20.040;2022-09-09T13:20:18;2.33;;;1.70;;
54557;SDS011;40452;50.080;20.040;2022-09-09T13:22:45;2.30;;;1.83;;
54557;SDS011;40452;50.080;20.040;2022-09-09T13:33:03;3.05;;;1.90;;
54557;SDS011;40452;50.080;20.040;2022-09-09T13:35:31;2.65;;;1.80;;
54557;SDS011;40452;50.080;20.040;2022-09-09T13:37:58;2.40;;;2.00;;
54557;SDS011;40452;50.080;20.040;2022-09-09T13:40:31;2.75;;;1.85;;
54557;SDS011;40452;50.080;20.040;2022-09-09T13:42:56;2.20;;;1.85;;
54557;SDS011;40452;50.080;20.040;2022-09-09T13:45:24;2.05;;;1.77;;
54557;SDS011;40452;50.080;20.040;2022-09-09T13:47:54;3.15;;;1.80;;
54557;SDS011;40452;50.080;20.040;2022-09-09T13:52:54;2.45;;;1.73;;
54557;SDS011;40452;50.080;20.040;2022-09-09T13:55:23;2.60;;;1.80;;
54557;SDS011;40452;50.080;20.040;2022-09-09T13:57:51;2.65;;;1.95;;
54557;SDS011;40452;50.080;20.040;2022-09-09T14:00:21;3.25;;;1.88;;
54557;SDS011;40452;50.080;20.040;2022-09-09T14:02:49;3.63;;;1.90;;
54557;SDS011;40452;50.080;20.040;2022-09-09T14:05:15;3.53;;;1.80;;
54557;SDS011;40452;50.080;20.040;2022-09-09T14:07:41;2.25;;;1.75;;
54557;SDS011;40452;50.080;20.040;2022-09-09T14:10:08;2.33;;;1.80;;
54557;SDS011;40452;50.080;20.040;2022-09-09T14:12:34;2.92;;;1.85;;
54557;SDS011;40452;50.080;20.040;2022-09-09T14:15:01;2.47;;;1.80;;
54557;SDS011;40452;50.080;20.040;2022-09-09T14:17:27;2.03;;;1.80;;
54557;SDS011;40452;50.080;20.040;2022-09-09T14:19:55;3.83;;;2.10;;
54557;SDS011;40452;50.080;20.040;2022-09-09T14:22:21;3.55;;;1.90;;
54557;SDS011;40452;50.080;20.040;2022-09-09T14:24:47;1.95;;;1.75;;
54557;SDS011;40452;50.080;20.040;2022-09-09T14:27:13;3.55;;;1.77;;
54557;SDS011;40452;50.080;20.040;2022-09-09T14:29:39;2.33;;;1.75;;
54557;SDS011;40452;50.080;20.040;2022-09-09T14:32:05;4.50;;;1.90;;
54557;SDS011;40452;50.080;20.040;2022-09-09T14:34:30;3.67;;;2.20;;
54557;SDS011;40452;50.080;20.040;2022-09-09T14:36:57;4.85;;;1.98;;
54557;SDS011;40452;50.080;20.040;2022-09-09T14:39:24;5.13;;;2.33;;
54557;SDS011;40452;50.080;20.040;2022-09-09T14:41:49;4.07;;;2.20;;
54557;SDS011;40452;50.080;20.040;2022-09-09T14:44:15;3.33;;;2.20;;
54557;SDS011;40452;50.080;20.040;2022-09-09T14:46:43;3.55;;;2.08;;
54557;SDS011;40452;50.080;20.040;2022-09-09T14:49:09;5.80;;;2.25;;
54557;SDS011;40452;50.080;20.040;2022-09-09T14:51:35;4.50;;;2.08;;
54557;SDS011;40452;50.080;20.040;2022-09-09T14:54:01;8.50;;;2.63;;
54557;SDS011;40452;50.080;20.040;2022-09-09T14:56:28;3.60;;;2.13;;
54557;SDS011;40452;50.080;20.040;2022-09-09T14:58:56;7.00;;;2.20;;
54557;SDS011;40452;50.080;20.040;2022-09-09T15:01:23;5.63;;;2.03;;
54557;SDS011;40452;50.080;20.040;2022-09-09T15:03:52;9.60;;;2.20;;
54557;SDS011;40452;50.080;20.040;2022-09-09T15:06:26;5.35;;;2.00;;
54557;SDS011;40452;50.080;20.040;2022-09-09T15:08:54;3.75;;;2.03;;
54557;SDS011;40452;50.080;20.040;2022-09-09T15:11:22;5.70;;;2.08;;
54557;SDS011;40452;50.080;20.040;2022-09-09T15:13:50;3.80;;;1.77;;
54557;SDS011;40452;50.080;20.040;2022-09-09T15:16:18;6.22;;;2.10;;
54557;SDS011;40452;50.080;20.040;2022-09-09T15:18:44;5.80;;;1.90;;
54557;SDS011;40452;50.080;20.040;2022-09-09T15:21:15;2.53;;;1.70;;
54557;SDS011;40452;50.080;20.040;2022-09-09T15:23:43;3.50;;;1.83;;
54557;SDS011;40452;50.080;20.040;2022-09-09T15:26:10;3.15;;;1.88;;
54557;SDS011;40452;50.080;20.040;2022-09-09T15:28:36;3.45;;;2.10;;
54557;SDS011;40452;50.080;20.040;2022-09-09T15:31:07;6.47;;;2.40;;
54557;SDS011;40452;50.080;20.040;2022-09-09T15:33:35;4.30;;;2.00;;
54557;SDS011;40452;50.080;20.040;2022-09-09T15:36:18;4.75;;;2.20;;
54557;SDS011;40452;50.080;20.040;2022-09-09T15:38:45;5.15;;;1.88;;
54557;SDS011;40452;50.080;20.040;2022-09-09T15:41:12;2.92;;;1.88;;
54557;SDS011;40452;50.080;20.040;2022-09-09T15:43:38;4.43;;;1.83;;
54557;SDS011;40452;50.080;20.040;2022-09-09T15:46:21;10.57;;;1.95;;
54557;SDS011;40452;50.080;20.040;2022-09-09T15:49:09;5.57;;;1.65;;
54557;SDS011;40452;50.080;20.040;2022-09-09T15:51:38;4.63;;;2.00;;
54557;SDS011;40452;50.080;20.040;2022-09-09T15:54:06;9.63;;;2.30;;
54557;SDS011;40452;50.080;20.040;2022-09-09T15:56:32;8.85;;;1.90;;
54557;SDS011;40452;50.080;20.040;2022-09-09T15:58:58;7.00;;;2.20;;
54557;SDS011;40452;50.080;20.040;2022-09-09T16:01:24;5.40;;;2.13;;
54557;SDS011;40452;50.080;20.040;2022-09-09T16:03:51;5.32;;;2.22;;
54557;SDS011;40452;50.080;20.040;2022-09-09T16:06:18;5.68;;;2.30;;
54557;SDS011;40452;50.080;20.040;2022-09-09T16:08:49;6.90;;;2.35;;
54557;SDS011;40452;50.080;20.040;2022-09-09T16:11:17;3.83;;;2.20;;
54557;SDS011;40452;50.080;20.040;2022-09-09T16:13:48;4.95;;;2.47;;
54557;SDS011;40452;50.080;20.040;2022-09-09T16:16:15;8.27;;;2.55;;
54557;SDS011;40452;50.080;20.040;2022-09-09T16:18:45;3.70;;;2.10;;
54557;SDS011;40452;50.080;20.040;2022-09-09T16:21:13;6.05;;;2.20;;
54557;SDS011;40452;50.080;20.040;2022-09-09T16:23:44;4.07;;;2.15;;
54557;SDS011;40452;50.080;20.040;2022-09-09T16:26:10;4.82;;;2.10;;
54557;SDS011;40452;50.080;20.040;2022-09-09T16:28:38;10.30;;;2.63;;
54557;SDS011;40452;50.080;20.040;2022-09-09T16:31:05;9.32;;;2.30;;
54557;SDS011;40452;50.080;20.040;2022-09-09T16:36:08;5.80;;;2.22;;
54557;SDS011;40452;50.080;20.040;2022-09-09T16:38:35;8.93;;;2.50;;
54557;SDS011;40452;50.080;20.040;2022-09-09T16:41:02;5.35;;;2.85;;
54557;SDS011;40452;50.080;20.040;2022-09-09T16:43:33;9.63;;;2.47;;
54557;SDS011;40452;50.080;20.040;2022-09-09T16:46:00;7.90;;;2.40;;
54557;SDS011;40452;50.080;20.040;2022-09-09T16:48:34;4.82;;;2.28;;
54557;SDS011;40452;50.080;20.040;2022-09-09T16:51:06;4.22;;;2.15;;
54557;SDS011;40452;50.080;20.040;2022-09-09T16:53:36;6.60;;;2.33;;
54557;SDS011;40452;50.080;20.040;2022-09-09T16:56:05;4.40;;;2.45;;
54557;SDS011;40452;50.080;20.040;2022-09-09T16:58:33;5.70;;;2.80;;
54557;SDS011;40452;50.080;20.040;2022-09-09T17:00:59;5.40;;;3.00;;
54557;SDS011;40452;50.080;20.040;2022-09-09T17:03:28;7.45;;;2.75;;
54557;SDS011;40452;50.080;20.040;2022-09-09T17:05:54;7.13;;;2.80;;
54557;SDS011;40452;50.080;20.040;2022-09-09T17:08:19;5.97;;;2.70;;
54557;SDS011;40452;50.080;20.040;2022-09-09T17:10:45;6.57;;;2.75;;
54557;SDS011;40452;50.080;20.040;2022-09-09T17:13:12;4.55;;;2.72;;
54557;SDS011;40452;50.080;20.040;2022-09-09T17:15:41;5.28;;;2.60;;
54557;SDS011;40452;50.080;20.040;2022-09-09T17:18:07;5.18;;;2.55;;
54557;SDS011;40452;50.080;20.040;2022-09-09T17:20:38;7.75;;;3.20;;
54557;SDS011;40452;50.080;20.040;2022-09-09T17:23:05;5.32;;;2.90;;
54557;SDS011;40452;50.080;20.040;2022-09-09T17:25:32;9.13;;;3.72;;
54557;SDS011;40452;50.080;20.040;2022-09-09T17:27:58;8.98;;;4.47;;
54557;SDS011;40452;50.080;20.040;2022-09-09T17:30:24;6.13;;;3.85;;
54557;SDS011;40452;50.080;20.040;2022-09-09T17:32:51;7.32;;;3.35;;
54557;SDS011;40452;50.080;20.040;2022-09-09T17:35:16;5.80;;;3.22;;
54557;SDS011;40452;50.080;20.040;2022-09-09T17:37:42;7.00;;;3.53;;
54557;SDS011;40452;50.080;20.040;2022-09-09T17:40:09;5.80;;;3.42;;
54557;SDS011;40452;50.080;20.040;2022-09-09T17:42:34;7.28;;;3.42;;
54557;SDS011;40452;50.080;20.040;2022-09-09T17:45:00;8.23;;;3.45;;
54557;SDS011;40452;50.080;20.040;2022-09-09T17:47:26;8.45;;;3.30;;
54557;SDS011;40452;50.080;20.040;2022-09-09T17:49:51;9.02;;;3.33;;
54557;SDS011;40452;50.080;20.040;2022-09-09T17:52:17;5.13;;;3.33;;
54557;SDS011;40452;50.080;20.040;2022-09-09T17:54:42;7.00;;;3.50;;
54557;SDS011;40452;50.080;20.040;2022-09-09T17:57:08;6.93;;;3.60;;
54557;SDS011;40452;50.080;20.040;2022-09-09T17:59:33;7.88;;;3.38;;
54557;SDS011;40452;50.080;20.040;2022-09-09T18:01:59;6.68;;;3.00;;
54557;SDS011;40452;50.080;20.040;2022-09-09T18:04:25;13.57;;;3.67;;
54557;SDS011;40452;50.080;20.040;2022-09-09T18:06:51;6.40;;;3.67;;
54557;SDS011;40452;50.080;20.040;2022-09-09T18:09:22;5.90;;;3.67;;
54557;SDS011;40452;50.080;20.040;2022-09-09T18:11:50;6.47;;;3.47;;
54557;SDS011;40452;50.080;20.040;2022-09-09T18:14:23;9.88;;;3.83;;
54557;SDS011;40452;50.080;20.040;2022-09-09T18:16:50;6.05;;;3.63;;
54557;SDS011;40452;50.080;20.040;2022-09-09T18:19:18;7.68;;;3.75;;
54557;SDS011;40452;50.080;20.040;2022-09-09T18:21:45;7.28;;;3.45;;
54557;SDS011;40452;50.080;20.040;2022-09-09T18:24:12;8.05;;;3.88;;
54557;SDS011;40452;50.080;20.040;2022-09-09T18:26:40;8.30;;;3.55;;
54557;SDS011;40452;50.080;20.040;2022-09-09T18:29:08;8.20;;;4.32;;
54557;SDS011;40452;50.080;20.040;2022-09-09T18:31:37;8.18;;;4.68;;
54557;SDS011;40452;50.080;20.040;2022-09-09T18:34:03;8.65;;;4.40;;
54557;SDS011;40452;50.080;20.040;2022-09-09T18:36:34;7.70;;;4.32;;
54557;SDS011;40452;50.080;20.040;2022-09-09T18:39:08;8.27;;;4.18;;
54557;SDS011;40452;50.080;20.040;2022-09-09T18:41:35;9.13;;;4.35;;
54557;SDS011;40452;50.080;20.040;2022-09-09T18:44:04;10.23;;;4.70;;
54557;SDS011;40452;50.080;20.040;2022-09-09T18:46:32;13.35;;;5.03;;
54557;SDS011;40452;50.080;20.040;2022-09-09T18:48:58;10.30;;;5.60;;
54557;SDS011;40452;50.080;20.040;2022-09-09T18:51:25;11.30;;;5.32;;
54557;SDS011;40452;50.080;20.040;2022-09-09T18:53:56;11.52;;;5.50;;
54557;SDS011;40452;50.080;20.040;2022-09-09T18:56:25;11.90;;;5.03;;
54557;SDS011;40452;50.080;20.040;2022-09-09T18:58:51;11.52;;;5.00;;
54557;SDS011;40452;50.080;20.040;2022-09-09T19:01:18;11.95;;;5.50;;
54557;SDS011;40452;50.080;20.040;2022-09-09T19:03:44;9.73;;;5.55;;
54557;SDS011;40452;50.080;20.040;2022-09-09T19:06:11;12.38;;;5.53;;
54557;SDS011;40452;50.080;20.040;2022-09-09T19:08:39;10.32;;;5.32;;
54557;SDS011;40452;50.080;20.040;2022-09-09T19:11:06;16.77;;;5.53;;
54557;SDS011;40452;50.080;20.040;2022-09-09T19:13:34;8.63;;;5.43;;
54557;SDS011;40452;50.080;20.040;2022-09-09T19:16:07;9.80;;;4.78;;
54557;SDS011;40452;50.080;20.040;2022-09-09T19:18:34;9.70;;;5.32;;
54557;SDS011;40452;50.080;20.040;2022-09-09T19:21:13;9.60;;;5.57;;
54557;SDS011;40452;50.080;20.040;2022-09-09T19:23:42;15.32;;;5.75;;
54557;SDS011;40452;50.080;20.040;2022-09-09T19:26:08;11.32;;;5.30;;
54557;SDS011;40452;50.080;20.040;2022-09-09T19:28:35;9.35;;;5.32;;
54557;SDS011;40452;50.080;20.040;2022-09-09T19:31:03;9.38;;;5.47;;
54557;SDS011;40452;50.080;20.040;2022-09-09T19:33:33;9.23;;;5.70;;
54557;SDS011;40452;50.080;20.040;2022-09-09T19:36:01;7.55;;;5.50;;
54557;SDS011;40452;50.080;20.040;2022-09-09T19:38:29;9.35;;;5.47;;
54557;SDS011;40452;50.080;20.040;2022-09-09T19:41:01;8.02;;;5.10;;
54557;SDS011;40452;50.080;20.040;2022-09-09T19:43:34;11.02;;;5.25;;
54557;SDS011;40452;50.080;20.040;2022-09-09T19:46:01;9.25;;;5.43;;
54557;SDS011;40452;50.080;20.040;2022-09-09T19:48:29;9.43;;;5.38;;
54557;SDS011;40452;50.080;20.040;2022-09-09T19:53:54;9.43;;;5.05;;
54557;SDS011;40452;50.080;20.040;2022-09-09T19:56:22;8.73;;;4.97;;
54557;SDS011;40452;50.080;20.040;2022-09-09T19:58:49;12.43;;;5.53;;
54557;SDS011;40452;50.080;20.040;2022-09-09T20:01:20;10.50;;;5.75;;
54557;SDS011;40452;50.080;20.040;2022-09-09T20:03:47;10.77;;;5.95;;
54557;SDS011;40452;50.080;20.040;2022-09-09T20:06:16;13.50;;;6.00;;
54557;SDS011;40452;50.080;20.040;2022-09-09T20:08:44;11.18;;;5.95;;
54557;SDS011;40452;50.080;20.040;2022-09-09T20:11:12;18.27;;;5.53;;
54557;SDS011;40452;50.080;20.040;2022-09-09T20:13:39;12.40;;;6.13;;
54557;SDS011;40452;50.080;20.040;2022-09-09T20:16:06;11.40;;;6.13;;
54557;SDS011;40452;50.080;20.040;2022-09-09T20:18:47;11.55;;;6.25;;
54557;SDS011;40452;50.080;20.040;2022-09-09T20:21:20;10.05;;;6.10;;